Terminal Aerodrome Forecast
Issued by NWS

Home | Current Version | Previous Version | Text Only | Print | Product List | Glossary On
Versions: 1 2 3 4 5 6 7 8 9 10 11 12 13 14 15 16 17
000
FTUS46 KSEW 241700
TAFBLI
TAF
KBLI 241725Z 2418/2518 02003KT P6SM OVC040
     FM242100 02008KT P6SM SCT050 OVC100
     FM250600 03005KT P6SM -RA OVC080
     FM251300 04006KT 4SM -RA BR OVC020=

USA.gov is the U.S. government's official web portal to all federal, state and local government web resources and services.